createdAt,value
2019-02-28T00:02:21.440Z,75.10
2019-02-28T00:04:48.535Z,82.90
2019-02-28T00:07:18.688Z,79.80
2019-02-28T00:09:50.159Z,75.50
2019-02-28T00:12:19.568Z,80.60
2019-02-28T00:14:49.791Z,73.60
2019-02-28T00:17:19.118Z,81.10
2019-02-28T00:19:49.422Z,82.10
2019-02-28T00:22:21.090Z,84.10
2019-02-28T00:24:51.585Z,82.50
2019-02-28T00:27:22.135Z,83.80
2019-02-28T00:29:53.176Z,76.40
2019-02-28T00:32:24.795Z,80.30
2019-02-28T00:34:57.676Z,81.00
2019-02-28T00:37:27.415Z,84.40
2019-02-28T00:39:57.045Z,84.20
2019-02-28T00:42:26.878Z,81.60
2019-02-28T00:44:56.581Z,85.60
2019-02-28T00:47:25.969Z,83.40
2019-02-28T00:49:56.510Z,79.90
2019-02-28T00:52:32.094Z,80.80
2019-02-28T00:55:06.170Z,84.60
2019-02-28T00:57:35.435Z,82.00
2019-02-28T01:00:06.275Z,76.00
2019-02-28T01:02:35.852Z,82.60
2019-02-28T01:05:06.061Z,82.30
2019-02-28T01:07:36.015Z,81.30
2019-02-28T01:10:08.297Z,85.40
2019-02-28T01:12:39.924Z,85.40
2019-02-28T01:15:11.064Z,79.50
2019-02-28T01:17:40.642Z,77.20
2019-02-28T01:20:14.890Z,81.70
2019-02-28T01:22:42.657Z,79.70
2019-02-28T01:25:14.409Z,80.10
2019-02-28T01:27:44.556Z,81.00
2019-02-28T01:30:14.401Z,79.90
2019-02-28T01:32:49.865Z,81.70
2019-02-28T01:35:17.582Z,80.60
2019-02-28T01:37:55.185Z,74.30
2019-02-28T01:40:24.809Z,81.20
2019-02-28T01:42:55.130Z,83.80
2019-02-28T01:45:24.470Z,84.50
2019-02-28T01:47:54.961Z,85.30
2019-02-28T01:50:29.689Z,84.90
2019-02-28T01:52:59.469Z,81.10
2019-02-28T01:55:33.037Z,84.30
2019-02-28T01:58:05.130Z,82.80
2019-02-28T02:00:35.344Z,81.10
2019-02-28T02:03:05.804Z,81.70
2019-02-28T02:05:36.136Z,80.50
2019-02-28T02:08:07.239Z,82.00
2019-02-28T02:10:39.544Z,81.50
2019-02-28T02:13:09.735Z,81.50
2019-02-28T02:15:41.138Z,82.40
2019-02-28T02:18:11.584Z,77.90
2019-02-28T02:20:41.064Z,77.70
2019-02-28T02:23:12.042Z,78.80
2019-02-28T02:25:42.153Z,81.80
2019-02-28T02:28:15.744Z,78.10
2019-02-28T02:30:50.495Z,78.40
2019-02-28T02:33:16.735Z,81.40
2019-02-28T02:35:48.072Z,77.30
2019-02-28T02:38:18.222Z,83.00
2019-02-28T02:40:47.850Z,78.60
2019-02-28T02:43:21.857Z,82.70
2019-02-28T02:45:49.884Z,83.00
2019-02-28T02:48:20.329Z,83.60
2019-02-28T02:50:49.671Z,84.60
2019-02-28T02:53:19.029Z,78.00
2019-02-28T02:55:50.140Z,83.00
2019-02-28T02:58:26.866Z,80.40
2019-02-28T03:00:56.393Z,83.50
2019-02-28T03:03:25.996Z,77.40
2019-02-28T03:05:58.807Z,79.10
2019-02-28T03:08:35.728Z,78.90
2019-02-28T03:10:59.955Z,82.70
2019-02-28T03:13:29.209Z,84.70
2019-02-28T03:16:01.017Z,83.20
2019-02-28T03:18:30.896Z,81.90
2019-02-28T03:21:00.342Z,81.30
2019-02-28T03:23:29.705Z,81.30
2019-02-28T03:26:06.032Z,83.10
2019-02-28T03:28:33.333Z,81.40
2019-02-28T03:31:11.840Z,84.40
2019-02-28T03:33:34.060Z,84.70
2019-02-28T03:36:03.454Z,84.90
2019-02-28T03:38:32.910Z,86.40
2019-02-28T03:41:02.752Z,83.30
2019-02-28T03:43:32.553Z,81.50
2019-02-28T03:46:06.263Z,82.20
2019-02-28T03:48:35.995Z,87.00
2019-02-28T03:51:04.759Z,78.50
2019-02-28T03:53:34.090Z,82.90
2019-02-28T03:56:03.646Z,86.00
2019-02-28T03:58:33.059Z,83.70
2019-02-28T04:01:08.555Z,85.50
2019-02-28T04:03:38.245Z,84.60
2019-02-28T04:06:08.151Z,83.20
2019-02-28T04:08:37.142Z,78.40
2019-02-28T04:11:06.395Z,80.60
2019-02-28T04:13:35.818Z,85.50
2019-02-28T04:16:09.097Z,82.00
2019-02-28T04:18:35.971Z,86.20
2019-02-28T04:21:10.050Z,83.60
2019-02-28T04:23:37.137Z,84.00
2019-02-28T04:26:08.164Z,86.20
2019-02-28T04:28:38.438Z,83.20
2019-02-28T04:31:09.483Z,84.00
2019-02-28T04:33:39.427Z,83.60
2019-02-28T04:36:08.690Z,84.50
2019-02-28T04:38:37.935Z,86.10
2019-02-28T04:41:07.343Z,85.50
2019-02-28T04:43:36.945Z,82.20
2019-02-28T04:46:08.294Z,83.10
2019-02-28T04:48:38.096Z,86.10
2019-02-28T04:51:08.858Z,82.70
2019-02-28T04:53:37.939Z,86.60
2019-02-28T04:56:11.574Z,81.80
2019-02-28T04:58:39.093Z,81.20
2019-02-28T05:01:12.282Z,86.10
2019-02-28T05:03:41.187Z,83.40
2019-02-28T05:06:14.518Z,82.90
2019-02-28T05:08:47.178Z,79.10
2019-02-28T05:11:16.293Z,76.90
2019-02-28T05:13:49.360Z,81.80
2019-02-28T05:16:20.220Z,79.10
2019-02-28T05:18:50.006Z,81.00
2019-02-28T05:21:19.655Z,78.50
2019-02-28T05:24:07.842Z,80.30
2019-02-28T05:26:37.074Z,83.10
2019-02-28T05:29:06.571Z,83.00
2019-02-28T05:31:35.958Z,81.80
2019-02-28T05:34:05.575Z,84.40
2019-02-28T05:36:38.027Z,80.70
2019-02-28T05:39:08.691Z,81.60
2019-02-28T05:41:38.069Z,81.90
2019-02-28T05:44:07.651Z,78.30
2019-02-28T05:46:37.472Z,75.70
2019-02-28T05:49:08.696Z,79.50
2019-02-28T05:51:38.990Z,75.30
2019-02-28T05:54:08.654Z,78.10
2019-02-28T05:56:39.954Z,79.50
2019-02-28T05:59:10.729Z,81.70
2019-02-28T06:01:43.584Z,81.20
2019-02-28T06:04:12.487Z,81.60
2019-02-28T06:06:41.741Z,79.50
2019-02-28T06:09:13.685Z,83.70
2019-02-28T06:11:44.000Z,82.10
2019-02-28T06:14:14.794Z,79.90
2019-02-28T06:16:46.904Z,81.50
2019-02-28T06:19:15.604Z,82.80
2019-02-28T06:21:48.067Z,80.20
2019-02-28T06:24:20.499Z,81.20
2019-02-28T06:26:50.610Z,82.60
2019-02-28T06:29:20.829Z,81.50
2019-02-28T06:31:50.931Z,83.70
2019-02-28T06:34:20.935Z,78.90
2019-02-28T06:36:50.480Z,79.20
2019-02-28T06:39:31.785Z,76.50
2019-02-28T06:42:01.468Z,70.60
2019-02-28T06:44:31.337Z,80.40
2019-02-28T06:47:01.026Z,74.80
2019-02-28T06:49:31.943Z,73.40
2019-02-28T06:52:01.406Z,78.00
2019-02-28T06:54:32.624Z,83.50
2019-02-28T06:57:02.673Z,79.80
2019-02-28T06:59:31.847Z,69.40
2019-02-28T07:02:02.001Z,75.20
2019-02-28T07:04:32.052Z,72.90
2019-02-28T07:07:02.999Z,74.40
2019-02-28T07:09:33.619Z,75.20
2019-02-28T07:12:03.522Z,73.40
2019-02-28T07:14:32.630Z,72.50
2019-02-28T07:17:02.622Z,74.00
2019-02-28T07:19:32.821Z,74.70
2019-02-28T07:22:01.987Z,72.20
2019-02-28T07:24:37.230Z,71.20
2019-02-28T07:27:05.673Z,65.80
2019-02-28T07:29:34.847Z,64.90
2019-02-28T07:32:05.170Z,71.70
2019-02-28T07:34:35.034Z,72.60
2019-02-28T07:37:05.016Z,72.50
2019-02-28T07:39:36.551Z,60.60
2019-02-28T07:42:07.810Z,72.10
2019-02-28T07:44:38.039Z,68.30
2019-02-28T07:47:07.687Z,60.20
2019-02-28T07:49:37.690Z,59.30
2019-02-28T07:52:09.164Z,68.00
2019-02-28T07:54:39.253Z,61.80
2019-02-28T07:57:09.025Z,57.80
2019-02-28T07:59:42.340Z,60.60
2019-02-28T08:02:11.486Z,61.30
2019-02-28T08:04:43.474Z,53.30
2019-02-28T08:07:14.721Z,62.60
2019-02-28T08:09:46.986Z,60.90
2019-02-28T08:12:16.772Z,63.20
2019-02-28T08:14:50.723Z,62.30
2019-02-28T08:17:20.255Z,54.50
2019-02-28T08:19:50.181Z,54.00
2019-02-28T08:22:24.215Z,49.50
2019-02-28T08:24:52.101Z,54.40
2019-02-28T08:27:26.492Z,56.60
2019-02-28T08:29:56.149Z,50.80
2019-02-28T08:32:26.036Z,50.30
2019-02-28T08:34:59.676Z,50.80
2019-02-28T08:37:29.930Z,53.10
2019-02-28T08:39:59.327Z,48.60
2019-02-28T08:42:29.514Z,46.60
2019-02-28T08:44:59.182Z,48.40
2019-02-28T08:47:33.121Z,48.00
2019-02-28T08:50:02.835Z,42.20
2019-02-28T08:52:32.151Z,45.10
2019-02-28T08:55:07.742Z,48.50
2019-02-28T08:57:37.934Z,36.80
2019-02-28T09:00:09.961Z,45.90
2019-02-28T09:02:39.597Z,40.80
2019-02-28T09:05:09.230Z,43.70
2019-02-28T09:07:38.327Z,45.60
2019-02-28T09:10:12.573Z,44.20
2019-02-28T09:12:41.406Z,41.70
2019-02-28T09:15:13.331Z,43.80
2019-02-28T09:17:42.840Z,33.60
2019-02-28T09:20:12.652Z,36.10
2019-02-28T09:22:42.595Z,39.30
2019-02-28T09:25:13.022Z,37.10
2019-02-28T09:27:41.462Z,34.80
2019-02-28T09:30:14.131Z,34.50
2019-02-28T09:32:45.201Z,30.10
2019-02-28T09:35:14.550Z,35.00
2019-02-28T09:37:42.658Z,36.40
2019-02-28T09:40:11.719Z,36.50
2019-02-28T09:42:39.886Z,27.20
2019-02-28T09:45:09.407Z,28.00
2019-02-28T09:47:38.532Z,39.40
2019-02-28T09:50:07.652Z,39.40
2019-02-28T09:52:41.238Z,25.10
2019-02-28T09:55:05.792Z,26.60
2019-02-28T09:57:34.826Z,24.90
2019-02-28T10:00:03.361Z,29.70
2019-02-28T10:02:31.665Z,27.10
2019-02-28T10:05:02.911Z,28.80
2019-02-28T10:07:30.439Z,23.90
2019-02-28T10:09:59.073Z,26.30
2019-02-28T10:12:27.436Z,32.50
2019-02-28T10:14:56.756Z,28.40
2019-02-28T10:17:25.858Z,23.00
2019-02-28T10:19:54.905Z,24.70
2019-02-28T10:22:23.268Z,22.10
2019-02-28T10:24:52.171Z,23.40
2019-02-28T10:27:23.273Z,23.80
2019-02-28T10:29:50.815Z,28.90
2019-02-28T10:32:19.665Z,29.20
2019-02-28T10:34:49.742Z,31.50
2019-02-28T10:37:22.671Z,29.00
2019-02-28T10:39:51.047Z,35.20
2019-02-28T10:42:20.435Z,29.50
2019-02-28T10:44:52.385Z,35.40
2019-02-28T10:47:21.789Z,26.60
2019-02-28T10:49:51.814Z,34.50
2019-02-28T10:52:23.466Z,34.70
2019-02-28T10:54:54.265Z,35.60
2019-02-28T10:57:26.675Z,41.10
2019-02-28T10:59:58.158Z,35.10
2019-02-28T11:02:27.046Z,34.90
2019-02-28T11:04:56.689Z,37.40
2019-02-28T11:07:26.437Z,36.60
2019-02-28T11:09:58.721Z,33.40
2019-02-28T11:12:27.862Z,35.20
2019-02-28T11:15:01.986Z,44.60
2019-02-28T11:17:34.864Z,38.90
2019-02-28T11:20:07.778Z,39.90
2019-02-28T11:22:42.074Z,31.90
2019-02-28T11:25:12.830Z,33.90
2019-02-28T11:27:43.294Z,38.00
2019-02-28T11:30:16.514Z,41.50
2019-02-28T11:32:50.663Z,37.10
2019-02-28T11:35:23.186Z,34.10
2019-02-28T11:37:53.210Z,35.30
2019-02-28T11:40:27.490Z,42.90
2019-02-28T11:42:59.473Z,39.10
2019-02-28T11:45:30.926Z,42.80
2019-02-28T11:48:05.260Z,33.90
2019-02-28T11:50:41.005Z,39.90
2019-02-28T11:53:09.506Z,34.90
2019-02-28T11:55:53.336Z,42.60
2019-02-28T11:58:26.340Z,38.70
2019-02-28T12:00:59.513Z,36.30
2019-02-28T12:03:31.843Z,39.40
2019-02-28T12:06:03.552Z,43.30
2019-02-28T12:08:36.267Z,43.60
2019-02-28T12:11:05.829Z,39.70
2019-02-28T12:13:35.667Z,40.10
2019-02-28T12:16:04.904Z,38.30
2019-02-28T12:18:39.541Z,42.80
2019-02-28T12:21:06.433Z,42.70
2019-02-28T12:23:37.824Z,37.60
2019-02-28T12:26:08.990Z,38.70
2019-02-28T12:28:40.297Z,42.30
2019-02-28T12:31:13.384Z,42.60
2019-02-28T12:33:43.605Z,46.80
2019-02-28T12:36:16.143Z,43.60
2019-02-28T12:38:47.455Z,40.70
2019-02-28T12:41:17.321Z,41.40
2019-02-28T12:43:47.222Z,46.50
2019-02-28T12:46:17.458Z,42.80
2019-02-28T12:48:48.322Z,39.10
2019-02-28T12:51:18.590Z,40.00
2019-02-28T12:53:49.947Z,46.30
2019-02-28T12:56:19.854Z,44.20
2019-02-28T12:58:50.864Z,45.90
2019-02-28T13:01:20.712Z,35.50
2019-02-28T13:03:54.638Z,36.50
2019-02-28T13:06:23.674Z,40.50
2019-02-28T13:08:54.190Z,35.10
2019-02-28T13:11:23.897Z,38.00
2019-02-28T13:13:56.625Z,35.60
2019-02-28T13:16:26.324Z,41.20
2019-02-28T13:18:58.979Z,42.90
2019-02-28T13:21:31.118Z,34.30
2019-02-28T13:24:00.710Z,38.40
2019-02-28T13:26:33.572Z,44.90
2019-02-28T13:29:01.634Z,34.90
2019-02-28T13:31:30.963Z,42.30
2019-02-28T13:34:01.205Z,34.30
2019-02-28T13:36:32.918Z,38.10
2019-02-28T13:39:06.733Z,40.70
2019-02-28T13:41:36.148Z,43.10
2019-02-28T13:44:05.607Z,40.70
2019-02-28T13:46:36.552Z,38.80
2019-02-28T13:49:08.439Z,39.90
2019-02-28T13:51:42.055Z,38.00
2019-02-28T13:54:09.519Z,42.70
2019-02-28T13:56:41.574Z,42.10
2019-02-28T13:59:12.473Z,36.30
2019-02-28T14:01:42.774Z,41.90
2019-02-28T14:04:18.737Z,38.10
2019-02-28T14:06:52.397Z,34.70
2019-02-28T14:09:22.210Z,38.20
2019-02-28T14:11:52.997Z,42.30
2019-02-28T14:14:23.516Z,39.50
2019-02-28T14:16:58.313Z,37.50
2019-02-28T14:19:27.589Z,35.50
2019-02-28T14:21:57.762Z,36.90
2019-02-28T14:24:30.955Z,37.10
2019-02-28T14:26:59.874Z,41.10
2019-02-28T14:29:30.058Z,36.80
2019-02-28T14:31:59.505Z,42.90
2019-02-28T14:34:28.806Z,40.10
2019-02-28T14:36:59.460Z,43.90
2019-02-28T14:39:28.963Z,44.30
2019-02-28T14:41:59.220Z,38.90
2019-02-28T14:44:31.616Z,46.30
2019-02-28T14:47:00.849Z,46.00
2019-02-28T14:49:30.613Z,38.10
2019-02-28T14:52:00.336Z,38.80
2019-02-28T14:54:31.872Z,38.80
2019-02-28T14:57:02.845Z,41.10
2019-02-28T14:59:32.780Z,44.90
2019-02-28T15:02:02.691Z,44.30
2019-02-28T15:04:32.213Z,46.90
2019-02-28T15:07:04.979Z,50.20
2019-02-28T15:09:36.150Z,45.90
2019-02-28T15:12:06.486Z,46.70
2019-02-28T15:14:36.335Z,49.50
2019-02-28T15:17:09.974Z,48.70
2019-02-28T15:19:41.019Z,49.70
2019-02-28T15:22:14.271Z,40.20
2019-02-28T15:24:44.532Z,40.50
2019-02-28T15:27:14.520Z,38.50
2019-02-28T15:29:43.914Z,50.40
2019-02-28T15:32:14.240Z,42.70
2019-02-28T15:34:44.769Z,40.10
2019-02-28T15:37:15.186Z,51.30
2019-02-28T15:39:45.986Z,43.10
2019-02-28T15:42:16.392Z,41.40
2019-02-28T15:44:46.838Z,47.00
2019-02-28T15:47:19.495Z,48.90
2019-02-28T15:49:48.234Z,40.00
2019-02-28T15:52:18.663Z,39.90
2019-02-28T15:54:48.654Z,50.30
2019-02-28T15:57:19.864Z,53.50
2019-02-28T15:59:56.327Z,47.30
2019-02-28T16:02:26.844Z,48.40
2019-02-28T16:04:57.621Z,45.60
2019-02-28T16:07:32.209Z,41.20
2019-02-28T16:09:59.486Z,49.10
2019-02-28T16:12:29.562Z,41.40
2019-02-28T16:14:59.636Z,49.50
2019-02-28T16:17:33.493Z,48.30
2019-02-28T16:20:07.227Z,52.00
2019-02-28T16:22:53.111Z,47.90
2019-02-28T16:25:25.859Z,46.80
2019-02-28T16:27:55.294Z,46.40
2019-02-28T16:30:28.685Z,49.70
2019-02-28T16:32:57.415Z,43.80
2019-02-28T16:35:29.354Z,47.00
2019-02-28T16:37:58.986Z,48.00
2019-02-28T16:40:28.706Z,50.70
2019-02-28T16:42:59.052Z,50.50
2019-02-28T16:45:40.744Z,47.80
2019-02-28T16:48:13.357Z,50.90
2019-02-28T16:50:50.601Z,42.80
2019-02-28T16:53:18.787Z,46.50
2019-02-28T16:55:48.788Z,46.80
2019-02-28T16:58:22.909Z,47.90
2019-02-28T17:00:53.015Z,54.80
2019-02-28T17:03:23.309Z,46.80
2019-02-28T17:05:52.920Z,55.10
2019-02-28T17:08:23.528Z,47.40
2019-02-28T17:10:55.291Z,51.70
2019-02-28T17:13:47.601Z,47.10
2019-02-28T17:16:33.646Z,58.30
2019-02-28T17:19:05.093Z,55.90
2019-02-28T17:21:34.559Z,60.10
2019-02-28T17:24:03.923Z,58.10
2019-02-28T17:27:02.394Z,61.30
2019-02-28T17:29:53.845Z,56.20
2019-02-28T17:32:27.349Z,56.70
2019-02-28T17:34:56.011Z,57.30
2019-02-28T17:37:27.852Z,56.00
2019-02-28T17:39:57.415Z,53.00
2019-02-28T17:42:30.855Z,53.40
2019-02-28T17:45:28.300Z,57.70
2019-02-28T17:48:34.691Z,59.00
2019-02-28T17:51:14.994Z,57.60
2019-02-28T17:54:20.808Z,45.70
2019-02-28T17:57:35.663Z,56.20
2019-02-28T18:00:33.435Z,57.50
2019-02-28T18:03:45.027Z,46.10
2019-02-28T18:06:57.703Z,60.40
2019-02-28T18:09:49.366Z,54.80
2019-02-28T18:12:59.310Z,59.70
2019-02-28T18:15:47.057Z,55.30
2019-02-28T18:18:52.149Z,52.20
2019-02-28T18:21:48.735Z,63.00
2019-02-28T18:24:48.334Z,55.50
2019-02-28T18:27:57.388Z,58.40
2019-02-28T18:31:02.746Z,50.30
2019-02-28T18:33:33.114Z,64.40
2019-02-28T18:36:09.177Z,62.20
2019-02-28T18:38:42.570Z,61.10
2019-02-28T18:41:13.554Z,65.30
2019-02-28T18:43:42.936Z,57.50
2019-02-28T18:46:14.691Z,51.10
2019-02-28T18:48:47.920Z,60.70
2019-02-28T18:51:18.039Z,61.60
2019-02-28T18:53:48.440Z,60.10
2019-02-28T18:56:18.985Z,61.10
2019-02-28T18:58:57.946Z,60.60
2019-02-28T19:01:28.691Z,63.60
2019-02-28T19:03:58.662Z,68.50
2019-02-28T19:06:28.320Z,62.20
2019-02-28T19:08:58.784Z,64.60
2019-02-28T19:11:28.848Z,62.60
2019-02-28T19:13:59.813Z,62.10
2019-02-28T19:16:30.255Z,54.70
2019-02-28T19:18:59.466Z,64.80
2019-02-28T19:21:28.849Z,58.40
2019-02-28T19:23:58.562Z,62.60
2019-02-28T19:26:28.364Z,61.70
2019-02-28T19:28:57.880Z,67.20
2019-02-28T19:31:27.937Z,64.30
2019-02-28T19:33:58.091Z,65.70
2019-02-28T19:36:28.001Z,63.80
2019-02-28T19:38:58.008Z,59.60
2019-02-28T19:41:27.626Z,64.20
2019-02-28T19:43:56.855Z,66.00
2019-02-28T19:46:29.736Z,62.70
2019-02-28T19:48:59.457Z,62.00
2019-02-28T19:51:29.427Z,65.90
2019-02-28T19:53:58.980Z,64.90
2019-02-28T19:56:32.780Z,65.40
2019-02-28T19:59:06.074Z,61.60
2019-02-28T20:01:42.521Z,67.90
2019-02-28T20:04:12.074Z,64.90
2019-02-28T20:06:43.317Z,53.80
2019-02-28T20:09:12.920Z,58.90
2019-02-28T20:11:42.488Z,56.00
2019-02-28T20:14:11.997Z,55.70
2019-02-28T20:16:42.718Z,56.80
2019-02-28T20:19:13.807Z,62.80
2019-02-28T20:21:43.828Z,60.70
2019-02-28T20:24:18.236Z,61.50
2019-02-28T20:26:55.184Z,58.50
2019-02-28T20:29:31.614Z,60.40
2019-02-28T20:32:01.399Z,68.00
2019-02-28T20:34:31.130Z,60.00
2019-02-28T20:37:01.613Z,72.30
2019-02-28T20:39:32.107Z,68.00
2019-02-28T20:42:07.925Z,58.90
2019-02-28T20:44:37.626Z,68.90
2019-02-28T20:47:08.134Z,57.50
2019-02-28T20:49:40.725Z,64.00
2019-02-28T20:52:10.645Z,66.80
2019-02-28T20:54:40.039Z,70.00
2019-02-28T20:57:15.621Z,70.00
2019-02-28T20:59:47.827Z,69.20
2019-02-28T21:02:24.555Z,59.50
2019-02-28T21:04:55.926Z,60.60
2019-02-28T21:07:25.496Z,61.70
2019-02-28T21:09:56.995Z,64.30
2019-02-28T21:12:27.231Z,61.00
2019-02-28T21:14:56.886Z,69.80
2019-02-28T21:17:29.739Z,69.50
2019-02-28T21:19:59.892Z,61.10
2019-02-28T21:22:29.581Z,64.00
2019-02-28T21:24:58.751Z,62.40
2019-02-28T21:27:28.565Z,70.10
2019-02-28T21:29:58.438Z,74.60
2019-02-28T21:32:27.847Z,72.60
2019-02-28T21:34:57.346Z,75.80
2019-02-28T21:37:27.587Z,69.00
2019-02-28T21:39:56.873Z,64.00
2019-02-28T21:42:26.704Z,66.40
2019-02-28T21:45:40.791Z,71.20
2019-02-28T21:48:09.959Z,71.90
2019-02-28T21:50:39.356Z,74.60
2019-02-28T21:53:13.403Z,62.00
2019-02-28T21:55:43.752Z,68.60
2019-02-28T21:58:14.819Z,69.30
2019-02-28T22:00:46.079Z,74.20
2019-02-28T22:03:17.654Z,75.30
2019-02-28T22:05:47.237Z,75.20
2019-02-28T22:08:24.610Z,68.30
2019-02-28T22:11:00.533Z,65.60
2019-02-28T22:13:31.290Z,71.70
2019-02-28T22:16:00.660Z,70.90
2019-02-28T22:18:36.957Z,70.60
2019-02-28T22:21:07.410Z,69.20
2019-02-28T22:23:38.956Z,68.00
2019-02-28T22:26:09.771Z,71.20
2019-02-28T22:28:40.023Z,65.50
2019-02-28T22:31:31.556Z,73.20
2019-02-28T22:34:08.545Z,68.10
2019-02-28T22:36:42.224Z,69.80
2019-02-28T22:39:13.478Z,70.70
2019-02-28T22:41:44.978Z,75.70
2019-02-28T22:44:16.868Z,74.80
2019-02-28T22:46:47.466Z,67.80
2019-02-28T22:49:17.512Z,72.20
2019-02-28T22:51:47.836Z,79.40
2019-02-28T22:54:20.283Z,68.70
2019-02-28T22:56:50.532Z,78.70
2019-02-28T22:59:20.288Z,75.40
2019-02-28T23:01:51.051Z,77.50
2019-02-28T23:04:31.623Z,78.90
2019-02-28T23:07:04.906Z,79.70
2019-02-28T23:09:39.862Z,68.30
2019-02-28T23:12:12.338Z,70.80
2019-02-28T23:14:43.831Z,70.40
2019-02-28T23:17:14.028Z,73.10
2019-02-28T23:19:43.385Z,72.80
2019-02-28T23:22:13.017Z,72.60
2019-02-28T23:24:42.668Z,77.90
2019-02-28T23:27:14.072Z,71.60
2019-02-28T23:29:48.631Z,74.90
2019-02-28T23:32:34.776Z,78.90
2019-02-28T23:35:05.720Z,78.80
2019-02-28T23:37:35.335Z,72.00
2019-02-28T23:40:06.602Z,76.90
2019-02-28T23:42:36.885Z,73.20
2019-02-28T23:45:07.058Z,75.70
2019-02-28T23:47:54.726Z,77.30
2019-02-28T23:50:25.823Z,71.00
2019-02-28T23:52:56.951Z,74.90
2019-02-28T23:55:26.640Z,74.80
2019-02-28T23:57:56.148Z,78.70
